sensor_id;sensor_type;location;lat;lon;timestamp;temperature;humidity
57624;SHT30;43448;52.264;20.644;2023-02-15T00:00:00;24.22;32.15
57624;SHT30;43448;52.264;20.644;2023-02-15T00:10:00;24.18;32.21
57624;SHT30;43448;52.264;20.644;2023-02-15T00:20:00;24.23;32.82
57624;SHT30;43448;52.264;20.644;2023-02-15T00:30:00;24.32;33.30
57624;SHT30;43448;52.264;20.644;2023-02-15T00:40:01;24.39;33.48
57624;SHT30;43448;52.264;20.644;2023-02-15T00:50:00;24.52;33.08
57624;SHT30;43448;52.264;20.644;2023-02-15T01:00:00;24.48;33.15
57624;SHT30;43448;52.264;20.644;2023-02-15T01:10:00;24.48;33.07
57624;SHT30;43448;52.264;20.644;2023-02-15T01:20:01;24.52;33.24
57624;SHT30;43448;52.264;20.644;2023-02-15T01:30:00;24.50;33.08
57624;SHT30;43448;52.264;20.644;2023-02-15T01:40:01;24.53;32.91
57624;SHT30;43448;52.264;20.644;2023-02-15T01:50:07;24.50;33.39
57624;SHT30;43448;52.264;20.644;2023-02-15T02:00:03;24.60;33.26
57624;SHT30;43448;52.264;20.644;2023-02-15T02:10:01;24.60;33.18
57624;SHT30;43448;52.264;20.644;2023-02-15T02:20:15;24.69;33.19
57624;SHT30;43448;52.264;20.644;2023-02-15T02:40:04;24.77;33.02
57624;SHT30;43448;52.264;20.644;2023-02-15T02:50:04;24.79;32.90
57624;SHT30;43448;52.264;20.644;2023-02-15T03:00:03;24.77;32.88
57624;SHT30;43448;52.264;20.644;2023-02-15T03:10:03;24.83;33.23
57624;SHT30;43448;52.264;20.644;2023-02-15T03:20:04;24.88;33.33
57624;SHT30;43448;52.264;20.644;2023-02-15T03:30:02;24.86;33.46
57624;SHT30;43448;52.264;20.644;2023-02-15T03:40:03;24.84;33.44
57624;SHT30;43448;52.264;20.644;2023-02-15T03:50:02;24.87;33.42
57624;SHT30;43448;52.264;20.644;2023-02-15T04:00:05;24.90;33.33
57624;SHT30;43448;52.264;20.644;2023-02-15T04:10:00;24.90;33.22
57624;SHT30;43448;52.264;20.644;2023-02-15T04:20:00;24.64;33.58
57624;SHT30;43448;52.264;20.644;2023-02-15T04:30:01;24.71;33.13
57624;SHT30;43448;52.264;20.644;2023-02-15T04:40:01;24.91;32.00
57624;SHT30;43448;52.264;20.644;2023-02-15T04:50:00;24.91;31.59
57624;SHT30;43448;52.264;20.644;2023-02-15T05:00:01;24.84;31.40
57624;SHT30;43448;52.264;20.644;2023-02-15T05:10:00;24.80;31.70
57624;SHT30;43448;52.264;20.644;2023-02-15T05:20:00;24.74;33.02
57624;SHT30;43448;52.264;20.644;2023-02-15T05:30:01;24.77;33.74
57624;SHT30;43448;52.264;20.644;2023-02-15T05:40:00;24.81;33.33
57624;SHT30;43448;52.264;20.644;2023-02-15T05:50:00;24.83;33.61
57624;SHT30;43448;52.264;20.644;2023-02-15T06:00:01;24.81;33.59
57624;SHT30;43448;52.264;20.644;2023-02-15T06:10:00;24.84;33.49
57624;SHT30;43448;52.264;20.644;2023-02-15T06:20:00;24.79;33.34
57624;SHT30;43448;52.264;20.644;2023-02-15T06:30:00;24.74;33.30
57624;SHT30;43448;52.264;20.644;2023-02-15T06:40:00;24.74;33.16
57624;SHT30;43448;52.264;20.644;2023-02-15T06:50:00;24.70;33.05
57624;SHT30;43448;52.264;20.644;2023-02-15T07:00:01;24.73;32.95
57624;SHT30;43448;52.264;20.644;2023-02-15T07:10:00;24.70;32.84
57624;SHT30;43448;52.264;20.644;2023-02-15T07:20:00;24.67;32.68
57624;SHT30;43448;52.264;20.644;2023-02-15T07:30:01;24.66;32.68
57624;SHT30;43448;52.264;20.644;2023-02-15T07:40:00;24.66;32.68
57624;SHT30;43448;52.264;20.644;2023-02-15T07:50:00;24.63;32.55
57624;SHT30;43448;52.264;20.644;2023-02-15T08:00:01;24.64;32.46
57624;SHT30;43448;52.264;20.644;2023-02-15T08:10:00;24.63;32.35
57624;SHT30;43448;52.264;20.644;2023-02-15T08:20:00;24.63;32.27
57624;SHT30;43448;52.264;20.644;2023-02-15T08:30:00;24.60;32.15
57624;SHT30;43448;52.264;20.644;2023-02-15T08:40:00;24.59;32.12
57624;SHT30;43448;52.264;20.644;2023-02-15T08:50:01;24.56;32.12
57624;SHT30;43448;52.264;20.644;2023-02-15T09:00:01;24.56;32.04
57624;SHT30;43448;52.264;20.644;2023-02-15T09:10:00;24.55;31.94
57624;SHT30;43448;52.264;20.644;2023-02-15T09:20:00;24.55;31.94
57624;SHT30;43448;52.264;20.644;2023-02-15T09:30:00;24.53;31.78
57624;SHT30;43448;52.264;20.644;2023-02-15T09:40:00;24.50;31.75
57624;SHT30;43448;52.264;20.644;2023-02-15T09:50:06;24.53;31.72
57624;SHT30;43448;52.264;20.644;2023-02-15T10:00:06;24.53;31.67
57624;SHT30;43448;52.264;20.644;2023-02-15T10:10:11;24.53;31.71
57624;SHT30;43448;52.264;20.644;2023-02-15T10:20:11;24.50;31.56
57624;SHT30;43448;52.264;20.644;2023-02-15T10:30:05;24.49;31.59
57624;SHT30;43448;52.264;20.644;2023-02-15T10:40:08;24.48;31.48
57624;SHT30;43448;52.264;20.644;2023-02-15T10:50:12;24.49;31.40
57624;SHT30;43448;52.264;20.644;2023-02-15T11:00:07;24.49;31.35
57624;SHT30;43448;52.264;20.644;2023-02-15T11:10:07;24.46;31.35
57624;SHT30;43448;52.264;20.644;2023-02-15T11:20:08;24.48;31.23
57624;SHT30;43448;52.264;20.644;2023-02-15T11:30:04;24.43;31.30
57624;SHT30;43448;52.264;20.644;2023-02-15T11:40:01;24.40;31.25
57624;SHT30;43448;52.264;20.644;2023-02-15T11:50:00;24.42;31.16
57624;SHT30;43448;52.264;20.644;2023-02-15T12:00:04;24.42;31.14
57624;SHT30;43448;52.264;20.644;2023-02-15T12:10:04;24.43;31.17
57624;SHT30;43448;52.264;20.644;2023-02-15T12:20:03;24.42;31.06
57624;SHT30;43448;52.264;20.644;2023-02-15T12:30:04;24.39;31.14
57624;SHT30;43448;52.264;20.644;2023-02-15T12:40:10;24.39;31.08
57624;SHT30;43448;52.264;20.644;2023-02-15T12:50:07;24.36;31.11
57624;SHT30;43448;52.264;20.644;2023-02-15T13:00:03;24.35;31.06
57624;SHT30;43448;52.264;20.644;2023-02-15T13:10:00;24.36;31.03
57624;SHT30;43448;52.264;20.644;2023-02-15T13:20:04;24.36;30.98
57624;SHT30;43448;52.264;20.644;2023-02-15T13:30:03;24.33;30.99
57624;SHT30;43448;52.264;20.644;2023-02-15T13:40:03;24.35;30.96
57624;SHT30;43448;52.264;20.644;2023-02-15T13:50:15;24.36;30.93
57624;SHT30;43448;52.264;20.644;2023-02-15T14:00:11;24.35;30.87
57624;SHT30;43448;52.264;20.644;2023-02-15T14:10:14;24.36;31.15
57624;SHT30;43448;52.264;20.644;2023-02-15T14:20:04;24.39;31.03
57624;SHT30;43448;52.264;20.644;2023-02-15T14:30:03;24.42;31.02
57624;SHT30;43448;52.264;20.644;2023-02-15T14:40:05;24.42;30.87
57624;SHT30;43448;52.264;20.644;2023-02-15T14:50:37;24.44;30.91
57624;SHT30;43448;52.264;20.644;2023-02-15T15:00:05;24.43;30.84
57624;SHT30;43448;52.264;20.644;2023-02-15T15:10:04;24.43;30.91
57624;SHT30;43448;52.264;20.644;2023-02-15T15:20:01;24.48;30.80
57624;SHT30;43448;52.264;20.644;2023-02-15T15:30:00;24.44;30.80
57624;SHT30;43448;52.264;20.644;2023-02-15T15:40:55;24.43;30.88
57624;SHT30;43448;52.264;20.644;2023-02-15T15:50:00;24.46;30.81
57624;SHT30;43448;52.264;20.644;2023-02-15T16:00:02;24.44;30.70
57624;SHT30;43448;52.264;20.644;2023-02-15T16:10:03;24.42;30.83
57624;SHT30;43448;52.264;20.644;2023-02-15T16:20:04;24.44;30.84
57624;SHT30;43448;52.264;20.644;2023-02-15T16:30:32;24.46;30.74
57624;SHT30;43448;52.264;20.644;2023-02-15T16:40:01;24.42;30.76
57624;SHT30;43448;52.264;20.644;2023-02-15T16:50:02;24.38;30.81
57624;SHT30;43448;52.264;20.644;2023-02-15T17:00:03;24.38;30.82
57624;SHT30;43448;52.264;20.644;2023-02-15T17:10:01;24.38;30.82
57624;SHT30;43448;52.264;20.644;2023-02-15T17:20:00;24.30;31.07
57624;SHT30;43448;52.264;20.644;2023-02-15T17:30:03;24.32;31.40
57624;SHT30;43448;52.264;20.644;2023-02-15T17:40:09;24.39;31.14
57624;SHT30;43448;52.264;20.644;2023-02-15T17:50:03;24.35;33.49
57624;SHT30;43448;52.264;20.644;2023-02-15T18:00:01;24.38;33.83
57624;SHT30;43448;52.264;20.644;2023-02-15T18:10:01;24.40;33.75
57624;SHT30;43448;52.264;20.644;2023-02-15T18:20:02;24.38;33.57
57624;SHT30;43448;52.264;20.644;2023-02-15T18:30:00;24.35;33.36
57624;SHT30;43448;52.264;20.644;2023-02-15T18:40:01;24.36;33.11
57624;SHT30;43448;52.264;20.644;2023-02-15T18:50:00;24.30;33.01
57624;SHT30;43448;52.264;20.644;2023-02-15T19:00:01;24.29;32.89
57624;SHT30;43448;52.264;20.644;2023-02-15T19:10:01;24.29;32.73
57624;SHT30;43448;52.264;20.644;2023-02-15T19:20:00;24.28;32.65
57624;SHT30;43448;52.264;20.644;2023-02-15T19:30:03;24.23;32.55
57624;SHT30;43448;52.264;20.644;2023-02-15T19:40:00;24.22;32.44
57624;SHT30;43448;52.264;20.644;2023-02-15T19:50:00;24.25;32.38
57624;SHT30;43448;52.264;20.644;2023-02-15T20:00:01;24.22;32.17
57624;SHT30;43448;52.264;20.644;2023-02-15T20:10:00;24.18;32.09
57624;SHT30;43448;52.264;20.644;2023-02-15T20:20:00;24.18;32.00
57624;SHT30;43448;52.264;20.644;2023-02-15T20:30:00;24.20;31.98
57624;SHT30;43448;52.264;20.644;2023-02-15T20:40:00;24.18;31.82
57624;SHT30;43448;52.264;20.644;2023-02-15T20:50:00;24.16;31.66
57624;SHT30;43448;52.264;20.644;2023-02-15T21:00:00;24.12;31.59
57624;SHT30;43448;52.264;20.644;2023-02-15T21:10:00;24.13;31.44
57624;SHT30;43448;52.264;20.644;2023-02-15T21:20:00;24.11;31.32
57624;SHT30;43448;52.264;20.644;2023-02-15T21:30:00;24.13;31.99
57624;SHT30;43448;52.264;20.644;2023-02-15T21:40:01;24.13;32.05
57624;SHT30;43448;52.264;20.644;2023-02-15T21:50:00;24.11;32.13
57624;SHT30;43448;52.264;20.644;2023-02-15T22:00:02;24.15;31.88
57624;SHT30;43448;52.264;20.644;2023-02-15T22:10:00;24.18;31.75
57624;SHT30;43448;52.264;20.644;2023-02-15T22:20:00;24.16;31.61
57624;SHT30;43448;52.264;20.644;2023-02-15T22:30:02;24.18;31.50
57624;SHT30;43448;52.264;20.644;2023-02-15T22:40:00;24.18;31.34
57624;SHT30;43448;52.264;20.644;2023-02-15T22:50:00;24.12;31.34
57624;SHT30;43448;52.264;20.644;2023-02-15T23:00:01;24.08;31.32
57624;SHT30;43448;52.264;20.644;2023-02-15T23:10:00;24.11;31.13
57624;SHT30;43448;52.264;20.644;2023-02-15T23:20:00;24.08;31.10
57624;SHT30;43448;52.264;20.644;2023-02-15T23:30:02;24.05;31.10
57624;SHT30;43448;52.264;20.644;2023-02-15T23:40:00;24.07;31.05
57624;SHT30;43448;52.264;20.644;2023-02-15T23:50:00;23.98;31.36
